sensor_id;sensor_type;location;lat;lon;timestamp;P1;durP1;ratioP1;P2;durP2;ratioP2
4462;SDS011;2244;50.200;8.220;2023-09-12T00:01:29;32.77;;;7.00;;
4462;SDS011;2244;50.200;8.220;2023-09-12T00:03:58;37.97;;;14.73;;
4462;SDS011;2244;50.200;8.220;2023-09-12T00:06:26;38.63;;;22.83;;
4462;SDS011;2244;50.200;8.220;2023-09-12T00:08:54;41.17;;;23.50;;
4462;SDS011;2244;50.200;8.220;2023-09-12T00:11:21;45.37;;;14.10;;
4462;SDS011;2244;50.200;8.220;2023-09-12T00:13:52;35.33;;;13.77;;
4462;SDS011;2244;50.200;8.220;2023-09-12T00:16:19;39.63;;;19.70;;
4462;SDS011;2244;50.200;8.220;2023-09-12T00:18:47;37.47;;;13.17;;
4462;SDS011;2244;50.200;8.220;2023-09-12T00:21:14;40.87;;;16.67;;
4462;SDS011;2244;50.200;8.220;2023-09-12T00:23:42;42.00;;;32.17;;
4462;SDS011;2244;50.200;8.220;2023-09-12T00:26:09;36.33;;;17.67;;
4462;SDS011;2244;50.200;8.220;2023-09-12T00:28:37;45.10;;;24.70;;
4462;SDS011;2244;50.200;8.220;2023-09-12T00:31:05;34.63;;;19.43;;
4462;SDS011;2244;50.200;8.220;2023-09-12T00:33:33;41.43;;;26.57;;
4462;SDS011;2244;50.200;8.220;2023-09-12T00:36:00;83.70;;;75.97;;
4462;SDS011;2244;50.200;8.220;2023-09-12T00:38:28;47.80;;;24.00;;
4462;SDS011;2244;50.200;8.220;2023-09-12T00:40:56;35.83;;;27.50;;
4462;SDS011;2244;50.200;8.220;2023-09-12T00:43:23;46.63;;;32.13;;
4462;SDS011;2244;50.200;8.220;2023-09-12T00:45:51;63.63;;;57.33;;
4462;SDS011;2244;50.200;8.220;2023-09-12T00:48:19;63.50;;;55.03;;
4462;SDS011;2244;50.200;8.220;2023-09-12T00:50:47;42.27;;;25.70;;
4462;SDS011;2244;50.200;8.220;2023-09-12T00:53:15;40.50;;;30.90;;
4462;SDS011;2244;50.200;8.220;2023-09-12T00:55:44;34.80;;;17.00;;
4462;SDS011;2244;50.200;8.220;2023-09-12T00:58:12;34.30;;;22.53;;
4462;SDS011;2244;50.200;8.220;2023-09-12T01:00:40;42.00;;;17.20;;
4462;SDS011;2244;50.200;8.220;2023-09-12T01:03:08;39.20;;;22.70;;
4462;SDS011;2244;50.200;8.220;2023-09-12T01:05:36;50.83;;;29.70;;
4462;SDS011;2244;50.200;8.220;2023-09-12T01:08:04;40.30;;;15.17;;
4462;SDS011;2244;50.200;8.220;2023-09-12T01:10:31;34.33;;;17.90;;
4462;SDS011;2244;50.200;8.220;2023-09-12T01:12:59;45.43;;;19.03;;
4462;SDS011;2244;50.200;8.220;2023-09-12T01:15:27;38.10;;;26.93;;
4462;SDS011;2244;50.200;8.220;2023-09-12T01:17:54;35.53;;;19.10;;
4462;SDS011;2244;50.200;8.220;2023-09-12T01:20:30;47.73;;;32.13;;
4462;SDS011;2244;50.200;8.220;2023-09-12T01:26:01;40.60;;;18.57;;
4462;SDS011;2244;50.200;8.220;2023-09-12T01:28:32;42.37;;;14.80;;
4462;SDS011;2244;50.200;8.220;2023-09-12T01:31:01;35.30;;;14.23;;
4462;SDS011;2244;50.200;8.220;2023-09-12T01:33:29;47.30;;;37.10;;
4462;SDS011;2244;50.200;8.220;2023-09-12T01:35:57;39.10;;;17.47;;
4462;SDS011;2244;50.200;8.220;2023-09-12T01:38:25;35.70;;;11.60;;
4462;SDS011;2244;50.200;8.220;2023-09-12T01:40:54;34.73;;;10.90;;
4462;SDS011;2244;50.200;8.220;2023-09-12T01:43:23;31.57;;;15.07;;
4462;SDS011;2244;50.200;8.220;2023-09-12T01:45:55;37.03;;;16.47;;
4462;SDS011;2244;50.200;8.220;2023-09-12T01:48:24;45.27;;;12.13;;
4462;SDS011;2244;50.200;8.220;2023-09-12T01:50:53;31.13;;;10.63;;
4462;SDS011;2244;50.200;8.220;2023-09-12T01:53:21;32.73;;;12.13;;
4462;SDS011;2244;50.200;8.220;2023-09-12T01:55:48;31.80;;;12.57;;
4462;SDS011;2244;50.200;8.220;2023-09-12T01:58:17;39.23;;;11.40;;
4462;SDS011;2244;50.200;8.220;2023-09-12T02:00:44;33.73;;;14.50;;
4462;SDS011;2244;50.200;8.220;2023-09-12T02:03:12;34.93;;;14.33;;
4462;SDS011;2244;50.200;8.220;2023-09-12T02:05:39;50.70;;;41.67;;
4462;SDS011;2244;50.200;8.220;2023-09-12T02:08:07;36.47;;;17.33;;
4462;SDS011;2244;50.200;8.220;2023-09-12T02:10:35;34.27;;;11.33;;
4462;SDS011;2244;50.200;8.220;2023-09-12T02:13:02;32.60;;;10.07;;
4462;SDS011;2244;50.200;8.220;2023-09-12T02:15:30;33.30;;;8.30;;
4462;SDS011;2244;50.200;8.220;2023-09-12T02:17:59;35.67;;;14.50;;
4462;SDS011;2244;50.200;8.220;2023-09-12T02:20:27;43.37;;;11.67;;
4462;SDS011;2244;50.200;8.220;2023-09-12T02:22:55;34.43;;;15.87;;
4462;SDS011;2244;50.200;8.220;2023-09-12T02:25:22;33.67;;;9.97;;
4462;SDS011;2244;50.200;8.220;2023-09-12T02:27:50;34.40;;;8.23;;
4462;SDS011;2244;50.200;8.220;2023-09-12T02:30:17;32.70;;;10.93;;
4462;SDS011;2244;50.200;8.220;2023-09-12T02:32:45;31.17;;;8.20;;
4462;SDS011;2244;50.200;8.220;2023-09-12T02:35:12;38.03;;;12.20;;
4462;SDS011;2244;50.200;8.220;2023-09-12T02:37:39;31.73;;;9.17;;
4462;SDS011;2244;50.200;8.220;2023-09-12T02:40:07;36.60;;;8.40;;
4462;SDS011;2244;50.200;8.220;2023-09-12T02:42:37;33.90;;;8.30;;
4462;SDS011;2244;50.200;8.220;2023-09-12T02:45:05;33.47;;;9.07;;
4462;SDS011;2244;50.200;8.220;2023-09-12T02:47:33;33.87;;;9.07;;
4462;SDS011;2244;50.200;8.220;2023-09-12T02:50:00;33.93;;;9.13;;
4462;SDS011;2244;50.200;8.220;2023-09-12T02:52:28;33.87;;;8.33;;
4462;SDS011;2244;50.200;8.220;2023-09-12T02:54:55;30.37;;;8.07;;
4462;SDS011;2244;50.200;8.220;2023-09-12T02:57:23;31.83;;;8.13;;
4462;SDS011;2244;50.200;8.220;2023-09-12T02:59:50;33.17;;;9.30;;
4462;SDS011;2244;50.200;8.220;2023-09-12T03:02:18;35.57;;;7.90;;
4462;SDS011;2244;50.200;8.220;2023-09-12T03:04:45;32.37;;;8.83;;
4462;SDS011;2244;50.200;8.220;2023-09-12T03:07:13;38.13;;;10.33;;
4462;SDS011;2244;50.200;8.220;2023-09-12T03:09:40;31.10;;;9.10;;
4462;SDS011;2244;50.200;8.220;2023-09-12T03:12:09;32.17;;;8.33;;
4462;SDS011;2244;50.200;8.220;2023-09-12T03:14:36;30.13;;;8.50;;
4462;SDS011;2244;50.200;8.220;2023-09-12T03:17:04;35.23;;;9.30;;
4462;SDS011;2244;50.200;8.220;2023-09-12T03:19:33;39.63;;;8.60;;
4462;SDS011;2244;50.200;8.220;2023-09-12T03:22:00;28.90;;;8.60;;
4462;SDS011;2244;50.200;8.220;2023-09-12T03:24:27;30.20;;;8.60;;
4462;SDS011;2244;50.200;8.220;2023-09-12T03:26:55;36.03;;;9.60;;
4462;SDS011;2244;50.200;8.220;2023-09-12T03:29:23;31.17;;;8.80;;
4462;SDS011;2244;50.200;8.220;2023-09-12T03:31:50;42.30;;;10.00;;
4462;SDS011;2244;50.200;8.220;2023-09-12T03:34:18;36.73;;;9.47;;
4462;SDS011;2244;50.200;8.220;2023-09-12T03:36:45;32.00;;;8.67;;
4462;SDS011;2244;50.200;8.220;2023-09-12T03:39:13;27.47;;;8.27;;
4462;SDS011;2244;50.200;8.220;2023-09-12T03:41:41;30.97;;;8.53;;
4462;SDS011;2244;50.200;8.220;2023-09-12T03:44:09;37.37;;;8.60;;
4462;SDS011;2244;50.200;8.220;2023-09-12T03:46:36;42.53;;;8.03;;
4462;SDS011;2244;50.200;8.220;2023-09-12T03:49:04;32.30;;;9.33;;
4462;SDS011;2244;50.200;8.220;2023-09-12T03:51:33;30.47;;;8.73;;
4462;SDS011;2244;50.200;8.220;2023-09-12T03:54:01;30.03;;;8.40;;
4462;SDS011;2244;50.200;8.220;2023-09-12T03:56:29;33.80;;;8.80;;
4462;SDS011;2244;50.200;8.220;2023-09-12T03:58:56;35.70;;;9.40;;
4462;SDS011;2244;50.200;8.220;2023-09-12T04:01:26;35.30;;;8.30;;
4462;SDS011;2244;50.200;8.220;2023-09-12T04:03:54;29.50;;;8.00;;
4462;SDS011;2244;50.200;8.220;2023-09-12T04:06:22;37.73;;;8.80;;
4462;SDS011;2244;50.200;8.220;2023-09-12T04:08:49;32.50;;;9.23;;
4462;SDS011;2244;50.200;8.220;2023-09-12T04:11:17;33.27;;;8.00;;
4462;SDS011;2244;50.200;8.220;2023-09-12T04:13:46;28.87;;;7.80;;
4462;SDS011;2244;50.200;8.220;2023-09-12T04:16:13;33.37;;;9.10;;
4462;SDS011;2244;50.200;8.220;2023-09-12T04:18:41;37.10;;;8.60;;
4462;SDS011;2244;50.200;8.220;2023-09-12T04:21:09;30.70;;;7.60;;
4462;SDS011;2244;50.200;8.220;2023-09-12T04:23:37;44.57;;;9.33;;
4462;SDS011;2244;50.200;8.220;2023-09-12T04:26:04;30.10;;;9.30;;
4462;SDS011;2244;50.200;8.220;2023-09-12T04:28:32;39.30;;;9.03;;
4462;SDS011;2244;50.200;8.220;2023-09-12T04:31:03;33.93;;;7.80;;
4462;SDS011;2244;50.200;8.220;2023-09-12T04:33:30;31.50;;;8.83;;
4462;SDS011;2244;50.200;8.220;2023-09-12T04:36:00;34.13;;;8.93;;
4462;SDS011;2244;50.200;8.220;2023-09-12T04:38:27;40.07;;;10.60;;
4462;SDS011;2244;50.200;8.220;2023-09-12T04:40:55;32.27;;;8.60;;
4462;SDS011;2244;50.200;8.220;2023-09-12T04:43:24;35.10;;;9.17;;
4462;SDS011;2244;50.200;8.220;2023-09-12T04:45:51;35.17;;;9.53;;
4462;SDS011;2244;50.200;8.220;2023-09-12T04:48:19;28.77;;;8.70;;
4462;SDS011;2244;50.200;8.220;2023-09-12T04:50:46;33.67;;;9.00;;
4462;SDS011;2244;50.200;8.220;2023-09-12T04:53:14;34.87;;;9.40;;
4462;SDS011;2244;50.200;8.220;2023-09-12T04:55:42;31.27;;;8.00;;
4462;SDS011;2244;50.200;8.220;2023-09-12T04:58:09;31.80;;;8.33;;
4462;SDS011;2244;50.200;8.220;2023-09-12T05:00:38;35.53;;;8.73;;
4462;SDS011;2244;50.200;8.220;2023-09-12T05:03:07;34.23;;;8.93;;
4462;SDS011;2244;50.200;8.220;2023-09-12T05:05:34;33.10;;;9.77;;
4462;SDS011;2244;50.200;8.220;2023-09-12T05:08:05;35.23;;;9.20;;
4462;SDS011;2244;50.200;8.220;2023-09-12T05:10:33;29.53;;;9.23;;
4462;SDS011;2244;50.200;8.220;2023-09-12T05:13:00;41.00;;;9.50;;
4462;SDS011;2244;50.200;8.220;2023-09-12T05:15:28;31.57;;;9.10;;
4462;SDS011;2244;50.200;8.220;2023-09-12T05:17:55;35.27;;;10.27;;
4462;SDS011;2244;50.200;8.220;2023-09-12T05:20:23;37.03;;;10.00;;
4462;SDS011;2244;50.200;8.220;2023-09-12T05:22:50;35.73;;;11.60;;
4462;SDS011;2244;50.200;8.220;2023-09-12T05:25:18;34.80;;;9.30;;
4462;SDS011;2244;50.200;8.220;2023-09-12T05:27:45;32.00;;;11.80;;
4462;SDS011;2244;50.200;8.220;2023-09-12T05:30:13;38.10;;;9.70;;
4462;SDS011;2244;50.200;8.220;2023-09-12T05:32:41;29.80;;;9.23;;
4462;SDS011;2244;50.200;8.220;2023-09-12T05:35:10;36.40;;;10.10;;
4462;SDS011;2244;50.200;8.220;2023-09-12T05:37:39;30.23;;;9.97;;
4462;SDS011;2244;50.200;8.220;2023-09-12T05:40:07;32.93;;;12.33;;
4462;SDS011;2244;50.200;8.220;2023-09-12T05:42:36;39.17;;;12.20;;
4462;SDS011;2244;50.200;8.220;2023-09-12T05:45:04;33.07;;;9.40;;
4462;SDS011;2244;50.200;8.220;2023-09-12T05:47:32;33.77;;;9.57;;
4462;SDS011;2244;50.200;8.220;2023-09-12T05:49:59;35.03;;;9.17;;
4462;SDS011;2244;50.200;8.220;2023-09-12T05:52:27;34.03;;;13.17;;
4462;SDS011;2244;50.200;8.220;2023-09-12T05:54:54;29.40;;;8.70;;
4462;SDS011;2244;50.200;8.220;2023-09-12T05:57:22;34.57;;;12.07;;
4462;SDS011;2244;50.200;8.220;2023-09-12T05:59:50;31.47;;;10.73;;
4462;SDS011;2244;50.200;8.220;2023-09-12T06:02:18;35.30;;;11.93;;
4462;SDS011;2244;50.200;8.220;2023-09-12T06:04:46;34.63;;;9.53;;
4462;SDS011;2244;50.200;8.220;2023-09-12T06:07:16;30.67;;;8.90;;
4462;SDS011;2244;50.200;8.220;2023-09-12T06:09:43;30.33;;;8.73;;
4462;SDS011;2244;50.200;8.220;2023-09-12T06:12:11;39.77;;;10.97;;
4462;SDS011;2244;50.200;8.220;2023-09-12T06:14:38;31.30;;;10.73;;
4462;SDS011;2244;50.200;8.220;2023-09-12T06:17:06;33.17;;;9.87;;
4462;SDS011;2244;50.200;8.220;2023-09-12T06:19:33;34.33;;;8.93;;
4462;SDS011;2244;50.200;8.220;2023-09-12T06:22:01;29.33;;;9.27;;
4462;SDS011;2244;50.200;8.220;2023-09-12T06:24:29;34.73;;;9.20;;
4462;SDS011;2244;50.200;8.220;2023-09-12T06:26:56;36.40;;;11.30;;
4462;SDS011;2244;50.200;8.220;2023-09-12T06:29:24;34.10;;;8.03;;
4462;SDS011;2244;50.200;8.220;2023-09-12T06:31:51;29.50;;;8.40;;
4462;SDS011;2244;50.200;8.220;2023-09-12T06:34:20;34.63;;;8.80;;
4462;SDS011;2244;50.200;8.220;2023-09-12T06:36:48;32.43;;;9.43;;
4462;SDS011;2244;50.200;8.220;2023-09-12T06:39:16;35.33;;;12.53;;
4462;SDS011;2244;50.200;8.220;2023-09-12T06:41:43;33.50;;;10.27;;
4462;SDS011;2244;50.200;8.220;2023-09-12T06:44:11;30.23;;;8.67;;
4462;SDS011;2244;50.200;8.220;2023-09-12T06:46:38;32.57;;;8.50;;
4462;SDS011;2244;50.200;8.220;2023-09-12T06:49:06;35.23;;;11.27;;
4462;SDS011;2244;50.200;8.220;2023-09-12T06:51:33;43.87;;;12.23;;
4462;SDS011;2244;50.200;8.220;2023-09-12T06:54:03;38.93;;;13.90;;
4462;SDS011;2244;50.200;8.220;2023-09-12T06:56:30;39.60;;;9.90;;
4462;SDS011;2244;50.200;8.220;2023-09-12T06:58:58;39.27;;;11.67;;
4462;SDS011;2244;50.200;8.220;2023-09-12T07:01:26;37.93;;;14.23;;
4462;SDS011;2244;50.200;8.220;2023-09-12T07:03:53;36.27;;;13.70;;
4462;SDS011;2244;50.200;8.220;2023-09-12T07:06:23;30.17;;;10.37;;
4462;SDS011;2244;50.200;8.220;2023-09-12T07:08:51;31.83;;;18.10;;
4462;SDS011;2244;50.200;8.220;2023-09-12T07:11:18;37.23;;;11.50;;
4462;SDS011;2244;50.200;8.220;2023-09-12T07:13:46;49.53;;;28.70;;
4462;SDS011;2244;50.200;8.220;2023-09-12T07:16:13;37.57;;;23.47;;
4462;SDS011;2244;50.200;8.220;2023-09-12T07:18:41;35.73;;;22.00;;
4462;SDS011;2244;50.200;8.220;2023-09-12T07:21:08;41.33;;;32.87;;
4462;SDS011;2244;50.200;8.220;2023-09-12T07:23:37;96.93;;;89.13;;
4462;SDS011;2244;50.200;8.220;2023-09-12T07:26:05;101.47;;;93.20;;
4462;SDS011;2244;50.200;8.220;2023-09-12T07:28:32;80.50;;;74.03;;
4462;SDS011;2244;50.200;8.220;2023-09-12T07:31:00;57.90;;;51.87;;
4462;SDS011;2244;50.200;8.220;2023-09-12T07:33:27;42.93;;;30.73;;
4462;SDS011;2244;50.200;8.220;2023-09-12T07:35:55;42.07;;;32.77;;
4462;SDS011;2244;50.200;8.220;2023-09-12T07:38:22;52.10;;;45.90;;
4462;SDS011;2244;50.200;8.220;2023-09-12T07:40:50;87.07;;;79.63;;
4462;SDS011;2244;50.200;8.220;2023-09-12T07:43:17;60.30;;;54.77;;
4462;SDS011;2244;50.200;8.220;2023-09-12T07:45:45;49.70;;;44.23;;
4462;SDS011;2244;50.200;8.220;2023-09-12T07:48:14;80.77;;;73.57;;
4462;SDS011;2244;50.200;8.220;2023-09-12T07:50:42;101.27;;;93.03;;
4462;SDS011;2244;50.200;8.220;2023-09-12T07:53:09;104.37;;;95.80;;
4462;SDS011;2244;50.200;8.220;2023-09-12T07:55:37;63.63;;;57.13;;
4462;SDS011;2244;50.200;8.220;2023-09-12T07:58:06;83.23;;;75.60;;
4462;SDS011;2244;50.200;8.220;2023-09-12T08:00:35;28.20;;;15.80;;
4462;SDS011;2244;50.200;8.220;2023-09-12T08:03:03;35.83;;;22.97;;
4462;SDS011;2244;50.200;8.220;2023-09-12T08:05:31;165.87;;;152.70;;
4462;SDS011;2244;50.200;8.220;2023-09-12T08:07:58;205.23;;;191.53;;
4462;SDS011;2244;50.200;8.220;2023-09-12T08:10:34;189.63;;;176.50;;
4462;SDS011;2244;50.200;8.220;2023-09-12T08:13:01;99.07;;;91.53;;
4462;SDS011;2244;50.200;8.220;2023-09-12T08:15:29;45.50;;;39.83;;
4462;SDS011;2244;50.200;8.220;2023-09-12T08:18:02;111.00;;;102.10;;
4462;SDS011;2244;50.200;8.220;2023-09-12T08:20:29;167.33;;;155.33;;
4462;SDS011;2244;50.200;8.220;2023-09-12T08:22:59;41.73;;;33.80;;
4462;SDS011;2244;50.200;8.220;2023-09-12T08:25:26;86.40;;;79.07;;
4462;SDS011;2244;50.200;8.220;2023-09-12T08:27:54;45.67;;;41.03;;
4462;SDS011;2244;50.200;8.220;2023-09-12T08:30:21;37.23;;;26.97;;
4462;SDS011;2244;50.200;8.220;2023-09-12T08:32:49;83.70;;;76.20;;
4462;SDS011;2244;50.200;8.220;2023-09-12T08:35:17;35.53;;;30.23;;
4462;SDS011;2244;50.200;8.220;2023-09-12T08:37:45;83.53;;;76.73;;
4462;SDS011;2244;50.200;8.220;2023-09-12T08:40:12;32.87;;;26.07;;
4462;SDS011;2244;50.200;8.220;2023-09-12T08:42:41;77.93;;;71.73;;
4462;SDS011;2244;50.200;8.220;2023-09-12T08:45:12;42.73;;;31.20;;
4462;SDS011;2244;50.200;8.220;2023-09-12T08:47:41;84.67;;;78.13;;
4462;SDS011;2244;50.200;8.220;2023-09-12T08:50:13;78.17;;;72.03;;
4462;SDS011;2244;50.200;8.220;2023-09-12T08:52:42;72.80;;;67.00;;
4462;SDS011;2244;50.200;8.220;2023-09-12T08:55:11;102.10;;;93.80;;
4462;SDS011;2244;50.200;8.220;2023-09-12T08:57:39;98.10;;;90.43;;
4462;SDS011;2244;50.200;8.220;2023-09-12T09:00:08;47.97;;;42.93;;
4462;SDS011;2244;50.200;8.220;2023-09-12T09:02:36;41.63;;;37.30;;
4462;SDS011;2244;50.200;8.220;2023-09-12T09:05:05;82.03;;;75.70;;
4462;SDS011;2244;50.200;8.220;2023-09-12T09:07:33;35.27;;;28.10;;
4462;SDS011;2244;50.200;8.220;2023-09-12T09:10:05;63.17;;;56.93;;
4462;SDS011;2244;50.200;8.220;2023-09-12T09:12:33;48.50;;;43.23;;
4462;SDS011;2244;50.200;8.220;2023-09-12T09:17:46;42.90;;;30.37;;
4462;SDS011;2244;50.200;8.220;2023-09-12T09:20:30;76.93;;;70.53;;
4462;SDS011;2244;50.200;8.220;2023-09-12T09:22:58;43.80;;;39.33;;
4462;SDS011;2244;50.200;8.220;2023-09-12T09:25:27;66.77;;;61.33;;
4462;SDS011;2244;50.200;8.220;2023-09-12T09:27:55;69.43;;;63.03;;
4462;SDS011;2244;50.200;8.220;2023-09-12T09:30:38;71.97;;;65.93;;
4462;SDS011;2244;50.200;8.220;2023-09-12T09:32:53;41.13;;;36.73;;
4462;SDS011;2244;50.200;8.220;2023-09-12T09:35:20;59.93;;;54.53;;
4462;SDS011;2244;50.200;8.220;2023-09-12T09:37:47;32.47;;;27.67;;
4462;SDS011;2244;50.200;8.220;2023-09-12T09:40:15;58.30;;;52.77;;
4462;SDS011;2244;50.200;8.220;2023-09-12T09:42:42;47.43;;;42.50;;
4462;SDS011;2244;50.200;8.220;2023-09-12T09:45:10;62.23;;;56.60;;
4462;SDS011;2244;50.200;8.220;2023-09-12T09:47:38;38.50;;;32.03;;
4462;SDS011;2244;50.200;8.220;2023-09-12T09:50:05;77.00;;;70.80;;
4462;SDS011;2244;50.200;8.220;2023-09-12T09:52:33;65.27;;;59.80;;
4462;SDS011;2244;50.200;8.220;2023-09-12T09:55:00;88.17;;;81.13;;
4462;SDS011;2244;50.200;8.220;2023-09-12T09:57:28;53.63;;;48.13;;
4462;SDS011;2244;50.200;8.220;2023-09-12T09:59:56;61.47;;;55.40;;
4462;SDS011;2244;50.200;8.220;2023-09-12T10:02:23;56.70;;;51.73;;
4462;SDS011;2244;50.200;8.220;2023-09-12T10:04:53;93.77;;;86.60;;
4462;SDS011;2244;50.200;8.220;2023-09-12T10:07:22;89.00;;;82.37;;
4462;SDS011;2244;50.200;8.220;2023-09-12T10:09:50;91.30;;;84.33;;
4462;SDS011;2244;50.200;8.220;2023-09-12T10:12:18;71.37;;;65.53;;
4462;SDS011;2244;50.200;8.220;2023-09-12T10:14:45;50.93;;;46.37;;
4462;SDS011;2244;50.200;8.220;2023-09-12T10:17:13;89.87;;;82.97;;
4462;SDS011;2244;50.200;8.220;2023-09-12T10:19:43;88.70;;;82.03;;
4462;SDS011;2244;50.200;8.220;2023-09-12T10:22:31;49.40;;;44.67;;
4462;SDS011;2244;50.200;8.220;2023-09-12T10:24:58;82.33;;;75.60;;
4462;SDS011;2244;50.200;8.220;2023-09-12T10:27:27;57.03;;;51.73;;
4462;SDS011;2244;50.200;8.220;2023-09-12T10:29:55;93.33;;;85.80;;
4462;SDS011;2244;50.200;8.220;2023-09-12T10:32:25;69.07;;;63.40;;
4462;SDS011;2244;50.200;8.220;2023-09-12T10:34:54;60.33;;;54.67;;
4462;SDS011;2244;50.200;8.220;2023-09-12T10:37:23;87.90;;;80.80;;
4462;SDS011;2244;50.200;8.220;2023-09-12T10:39:55;103.37;;;95.80;;
4462;SDS011;2244;50.200;8.220;2023-09-12T10:42:23;81.87;;;75.80;;
4462;SDS011;2244;50.200;8.220;2023-09-12T10:44:52;72.50;;;65.67;;
4462;SDS011;2244;50.200;8.220;2023-09-12T10:47:21;121.67;;;112.53;;
4462;SDS011;2244;50.200;8.220;2023-09-12T10:49:49;80.07;;;73.70;;
4462;SDS011;2244;50.200;8.220;2023-09-12T10:52:26;49.73;;;45.40;;
4462;SDS011;2244;50.200;8.220;2023-09-12T10:54:54;34.97;;;26.57;;
4462;SDS011;2244;50.200;8.220;2023-09-12T10:57:21;115.00;;;106.70;;
4462;SDS011;2244;50.200;8.220;2023-09-12T11:02:32;28.23;;;18.67;;
4462;SDS011;2244;50.200;8.220;2023-09-12T11:05:34;100.30;;;93.37;;
4462;SDS011;2244;50.200;8.220;2023-09-12T11:12:48;111.97;;;103.17;;
4462;SDS011;2244;50.200;8.220;2023-09-12T11:15:17;86.50;;;79.93;;
4462;SDS011;2244;50.200;8.220;2023-09-12T11:18:00;56.77;;;51.97;;
4462;SDS011;2244;50.200;8.220;2023-09-12T11:20:17;30.60;;;21.07;;
4462;SDS011;2244;50.200;8.220;2023-09-12T11:22:46;33.87;;;20.33;;
4462;SDS011;2244;50.200;8.220;2023-09-12T11:28:01;57.07;;;52.00;;
4462;SDS011;2244;50.200;8.220;2023-09-12T11:30:15;86.67;;;80.20;;
4462;SDS011;2244;50.200;8.220;2023-09-12T11:32:46;80.37;;;74.17;;
4462;SDS011;2244;50.200;8.220;2023-09-12T11:35:14;69.47;;;63.43;;
4462;SDS011;2244;50.200;8.220;2023-09-12T11:37:59;106.93;;;99.40;;
4462;SDS011;2244;50.200;8.220;2023-09-12T11:40:23;103.40;;;96.27;;
4462;SDS011;2244;50.200;8.220;2023-09-12T11:42:51;71.87;;;65.77;;
4462;SDS011;2244;50.200;8.220;2023-09-12T11:45:19;69.33;;;63.60;;
4462;SDS011;2244;50.200;8.220;2023-09-12T11:47:47;106.57;;;98.57;;
4462;SDS011;2244;50.200;8.220;2023-09-12T11:50:34;76.43;;;70.40;;
4462;SDS011;2244;50.200;8.220;2023-09-12T11:52:47;100.50;;;93.00;;
4462;SDS011;2244;50.200;8.220;2023-09-12T11:55:21;84.97;;;78.30;;
4462;SDS011;2244;50.200;8.220;2023-09-12T11:57:43;114.80;;;106.57;;
4462;SDS011;2244;50.200;8.220;2023-09-12T12:00:11;105.27;;;97.60;;
4462;SDS011;2244;50.200;8.220;2023-09-12T12:02:39;82.17;;;75.53;;
4462;SDS011;2244;50.200;8.220;2023-09-12T12:05:07;63.97;;;57.70;;
4462;SDS011;2244;50.200;8.220;2023-09-12T12:07:35;85.00;;;78.17;;
4462;SDS011;2244;50.200;8.220;2023-09-12T12:10:02;96.73;;;88.80;;
4462;SDS011;2244;50.200;8.220;2023-09-12T12:12:30;75.60;;;69.30;;
4462;SDS011;2244;50.200;8.220;2023-09-12T12:14:58;90.57;;;82.60;;
4462;SDS011;2244;50.200;8.220;2023-09-12T12:17:26;77.53;;;70.97;;
4462;SDS011;2244;50.200;8.220;2023-09-12T12:19:53;107.67;;;98.83;;
4462;SDS011;2244;50.200;8.220;2023-09-12T12:22:22;109.33;;;101.43;;
4462;SDS011;2244;50.200;8.220;2023-09-12T12:24:50;89.93;;;83.10;;
4462;SDS011;2244;50.200;8.220;2023-09-12T12:27:18;59.33;;;53.83;;
4462;SDS011;2244;50.200;8.220;2023-09-12T12:29:45;73.40;;;67.13;;
4462;SDS011;2244;50.200;8.220;2023-09-12T12:32:15;62.70;;;57.20;;
4462;SDS011;2244;50.200;8.220;2023-09-12T12:34:42;69.30;;;62.67;;
4462;SDS011;2244;50.200;8.220;2023-09-12T12:37:12;74.70;;;68.27;;
4462;SDS011;2244;50.200;8.220;2023-09-12T12:39:45;73.40;;;67.23;;
4462;SDS011;2244;50.200;8.220;2023-09-12T12:42:10;116.83;;;108.97;;
4462;SDS011;2244;50.200;8.220;2023-09-12T12:44:37;96.53;;;89.27;;
4462;SDS011;2244;50.200;8.220;2023-09-12T12:47:08;101.47;;;93.93;;
4462;SDS011;2244;50.200;8.220;2023-09-12T12:49:37;105.90;;;98.30;;
4462;SDS011;2244;50.200;8.220;2023-09-12T12:52:09;84.23;;;77.60;;
4462;SDS011;2244;50.200;8.220;2023-09-12T12:54:37;66.50;;;60.87;;
4462;SDS011;2244;50.200;8.220;2023-09-12T12:57:05;74.80;;;68.87;;
4462;SDS011;2244;50.200;8.220;2023-09-12T12:59:32;86.67;;;80.03;;
4462;SDS011;2244;50.200;8.220;2023-09-12T13:02:01;80.60;;;74.60;;
4462;SDS011;2244;50.200;8.220;2023-09-12T13:04:35;122.60;;;114.10;;
4462;SDS011;2244;50.200;8.220;2023-09-12T13:06:58;49.13;;;44.40;;
4462;SDS011;2244;50.200;8.220;2023-09-12T13:09:26;51.53;;;46.40;;
4462;SDS011;2244;50.200;8.220;2023-09-12T13:11:54;60.50;;;55.10;;
4462;SDS011;2244;50.200;8.220;2023-09-12T13:14:21;47.77;;;42.87;;
4462;SDS011;2244;50.200;8.220;2023-09-12T13:16:50;91.53;;;84.90;;
4462;SDS011;2244;50.200;8.220;2023-09-12T13:19:18;63.67;;;58.10;;
4462;SDS011;2244;50.200;8.220;2023-09-12T13:21:45;78.97;;;72.37;;
4462;SDS011;2244;50.200;8.220;2023-09-12T13:24:13;50.17;;;45.23;;
4462;SDS011;2244;50.200;8.220;2023-09-12T13:26:40;45.93;;;41.63;;
4462;SDS011;2244;50.200;8.220;2023-09-12T13:29:08;43.90;;;39.67;;
4462;SDS011;2244;50.200;8.220;2023-09-12T13:31:35;88.23;;;81.53;;
4462;SDS011;2244;50.200;8.220;2023-09-12T13:34:03;51.83;;;47.07;;
4462;SDS011;2244;50.200;8.220;2023-09-12T13:36:30;49.20;;;44.33;;
4462;SDS011;2244;50.200;8.220;2023-09-12T13:38:58;72.23;;;66.10;;
4462;SDS011;2244;50.200;8.220;2023-09-12T13:41:25;66.13;;;60.67;;
4462;SDS011;2244;50.200;8.220;2023-09-12T13:43:54;74.40;;;68.00;;
4462;SDS011;2244;50.200;8.220;2023-09-12T13:46:21;61.20;;;55.93;;
4462;SDS011;2244;50.200;8.220;2023-09-12T13:48:50;50.27;;;45.60;;
4462;SDS011;2244;50.200;8.220;2023-09-12T13:51:17;52.13;;;46.93;;
4462;SDS011;2244;50.200;8.220;2023-09-12T13:53:44;42.80;;;36.93;;
4462;SDS011;2244;50.200;8.220;2023-09-12T13:56:13;38.57;;;31.60;;
4462;SDS011;2244;50.200;8.220;2023-09-12T13:58:42;79.97;;;73.80;;
4462;SDS011;2244;50.200;8.220;2023-09-12T14:01:11;55.53;;;50.30;;
4462;SDS011;2244;50.200;8.220;2023-09-12T14:03:40;38.97;;;34.97;;
4462;SDS011;2244;50.200;8.220;2023-09-12T14:06:08;68.00;;;62.30;;
4462;SDS011;2244;50.200;8.220;2023-09-12T14:08:36;32.70;;;28.67;;
4462;SDS011;2244;50.200;8.220;2023-09-12T14:11:04;43.27;;;39.37;;
4462;SDS011;2244;50.200;8.220;2023-09-12T14:13:33;41.60;;;37.60;;
4462;SDS011;2244;50.200;8.220;2023-09-12T14:16:01;42.53;;;38.47;;
4462;SDS011;2244;50.200;8.220;2023-09-12T14:18:29;30.33;;;24.93;;
4462;SDS011;2244;50.200;8.220;2023-09-12T14:20:57;33.23;;;29.67;;
4462;SDS011;2244;50.200;8.220;2023-09-12T14:23:24;61.70;;;56.80;;
4462;SDS011;2244;50.200;8.220;2023-09-12T14:25:52;36.43;;;30.90;;
4462;SDS011;2244;50.200;8.220;2023-09-12T14:28:20;55.20;;;50.40;;
4462;SDS011;2244;50.200;8.220;2023-09-12T14:30:48;71.93;;;66.17;;
4462;SDS011;2244;50.200;8.220;2023-09-12T14:33:16;34.90;;;28.50;;
4462;SDS011;2244;50.200;8.220;2023-09-12T14:35:45;55.37;;;50.50;;
4462;SDS011;2244;50.200;8.220;2023-09-12T14:38:12;44.27;;;39.77;;
4462;SDS011;2244;50.200;8.220;2023-09-12T14:40:40;34.33;;;30.90;;
4462;SDS011;2244;50.200;8.220;2023-09-12T14:43:09;32.43;;;29.00;;
4462;SDS011;2244;50.200;8.220;2023-09-12T14:45:36;41.53;;;37.50;;
4462;SDS011;2244;50.200;8.220;2023-09-12T14:48:05;41.00;;;37.17;;
4462;SDS011;2244;50.200;8.220;2023-09-12T14:50:34;71.83;;;66.27;;
4462;SDS011;2244;50.200;8.220;2023-09-12T14:53:03;35.20;;;28.67;;
4462;SDS011;2244;50.200;8.220;2023-09-12T14:55:30;51.83;;;47.23;;
4462;SDS011;2244;50.200;8.220;2023-09-12T14:57:58;52.30;;;47.60;;
4462;SDS011;2244;50.200;8.220;2023-09-12T15:00:27;101.93;;;94.73;;
4462;SDS011;2244;50.200;8.220;2023-09-12T15:02:56;49.43;;;43.60;;
4462;SDS011;2244;50.200;8.220;2023-09-12T15:05:24;67.00;;;61.57;;
4462;SDS011;2244;50.200;8.220;2023-09-12T15:07:51;69.00;;;63.10;;
4462;SDS011;2244;50.200;8.220;2023-09-12T15:10:19;83.23;;;77.03;;
4462;SDS011;2244;50.200;8.220;2023-09-12T15:12:46;84.17;;;77.57;;